Kezdőlap
METAR-TAF:

METAR-TAF

Repülőterek :

Dire Dawa, Etiópia

földrajzi szélesség: 09-36N, földrajzi hosszúság: 041-52E, magasság: 1146 m

METAR: hiányzik

Idő: 10:56 (07:56 UTC)

Előrejelzés

A jelentés 4 órával és 26 perccel ezelõtt készült, 03:30 UTC
Az előrejelzés 15-én 06 óra UTC és 16-én 12 óra UTC között érvényes
Déli szél 6 kt
Látótávolság 10 km, vagy több
Szakadozott felhőzet 2600 lábon
Szórványos felhőzet 9000 lábon
15-én 14 óra UTC és 15-én 18 óra UTC között fokozatosan kialakuló
Látótávolság: 8000 m
záporok,

TAF: HADR 150330Z 1506/1612 17006KT 9999 BKN026 SCT090 BECMG 1514/1518 8000 SHRA

Meteorológiai megfigyelések és előrejelzések több, mint 4000 repülőtéren (METAR és TAF jelentéseket).

A térképen piros és sárga pontok jelzik az elérhető meteorológiai állomásokat.

Mozgassa az egeret a pont fölött, hogy megjelenjen az állomás neve.

Azután kattintson az időjárási megfigyelések és előrejelzések megtekintéséhez.

A térkép megváltoztatása: kattintson a fekete keresztel jelölt zöld gombra ráközelítéshez, a vonallal jelölt zöld gombra távolításhoz, vagy a zöld nyilakra a szomszédos térképek eléréséhez.


METAR-TAF: